Time;durP1;ratioP1;P1;durP2;ratioP2;P2;SDS_P1;SDS_P2;PMS_P1;PMS_P2;Temp;Humidity;BMP_temperature;BMP_pressure;BME280_temperature;BME280_humidity;BME280_pressure;Samples;Min_cycle;Max_cycle;Signal;HPM_P1;HPM_P2
2023/03/17 00:01:04;;;;;;;;;;;28.50;68.40;;;;;;5038692;28;19909;-66
2023/03/17 00:03:33;;;;;;;;;;;28.60;68.60;;;;;;5039513;28;19927;-68
2023/03/17 00:06:00;;;;;;;;;;;28.60;68.00;;;;;;5038924;28;19920;-68
2023/03/17 00:08:33;;;;;;;;;;;28.70;67.70;;;;;;5039134;28;19966;-68
2023/03/17 00:11:00;;;;;;;;;;;28.80;66.90;;;;;;5038798;28;19913;-70
2023/03/17 00:13:27;;;;;;;;;;;28.90;67.20;;;;;;5040150;28;19923;-70
2023/03/17 00:15:55;;;;;;;;;;;29.00;67.10;;;;;;5037913;28;19959;-70
2023/03/17 00:18:22;;;;;;;;;;;29.10;67.30;;;;;;5038261;28;19988;-71
2023/03/17 00:20:49;;;;;;;;;;;29.10;66.50;;;;;;5038007;28;19908;-69
2023/03/17 00:23:20;;;;;;;;;;;29.10;66.20;;;;;;5038510;28;20386;-68
2023/03/17 00:25:47;;;;;;;;;;;29.20;65.30;;;;;;5037999;28;20023;-70
2023/03/17 00:28:18;;;;;;;;;;;29.30;65.80;;;;;;5037906;28;20632;-69
2023/03/17 00:30:45;;;;;;;;;;;29.30;65.70;;;;;;5038222;28;19909;-69
2023/03/17 00:33:12;;;;;;;;;;;29.40;65.20;;;;;;5039244;28;20432;-69
2023/03/17 00:35:39;;;;;;;;;;;29.40;65.20;;;;;;5039258;28;19912;-70
2023/03/17 00:38:06;;;;;;;;;;;29.50;65.60;;;;;;5037501;28;19952;-68
2023/03/17 00:40:33;;;;;;;;;;;29.60;65.30;;;;;;5043788;28;19932;-69
2023/03/17 00:43:01;;;;;;;;;;;29.70;65.70;;;;;;5038592;28;20357;-72
2023/03/17 00:45:28;;;;;;;;;;;29.90;65.00;;;;;;5038252;28;19913;-68
2023/03/17 00:47:55;;;;;;;;;;;30.00;65.30;;;;;;5023487;28;20380;-69
2023/03/17 00:50:23;;;;;;;;;;;30.00;64.20;;;;;;5040126;28;19919;-68
2023/03/17 00:52:51;;;;;;;;;;;30.10;64.20;;;;;;5039635;28;19967;-68
2023/03/17 00:55:21;;;;;;;;;;;30.20;64.20;;;;;;5039614;28;19908;-68
2023/03/17 00:57:47;;;;;;;;;;;30.30;64.20;;;;;;5036051;28;20357;-70
2023/03/17 01:00:25;;;;;;;;;;;30.30;63.80;;;;;;5038832;28;19947;-70
2023/03/17 01:02:53;;;;;;;;;;;30.40;64.00;;;;;;5035460;28;19910;-70
2023/03/17 01:05:21;;;;;;;;;;;30.50;63.60;;;;;;5039299;28;20264;-67
2023/03/17 01:07:51;;;;;;;;;;;30.70;64.60;;;;;;5039090;28;19921;-70
2023/03/17 01:10:24;;;;;;;;;;;30.90;64.00;;;;;;5043314;28;20349;-66
2023/03/17 01:12:52;;;;;;;;;;;31.00;64.90;;;;;;5043266;28;20007;-68
2023/03/17 01:15:20;;;;;;;;;;;31.20;65.10;;;;;;5041124;28;19913;-69
2023/03/17 01:17:49;;;;;;;;;;;31.30;64.60;;;;;;5042594;28;20284;-69
2023/03/17 01:20:20;;;;;;;;;;;31.30;65.10;;;;;;5043283;28;19916;-68
2023/03/17 01:22:47;;;;;;;;;;;31.40;64.80;;;;;;5042981;28;20003;-69
2023/03/17 01:25:14;;;;;;;;;;;31.40;63.80;;;;;;5043168;28;20358;-68
2023/03/17 01:27:41;;;;;;;;;;;31.50;64.20;;;;;;5042775;28;19921;-69
2023/03/17 01:30:16;;;;;;;;;;;31.50;65.30;;;;;;5041696;28;20318;-69
2023/03/17 01:32:42;;;;;;;;;;;31.60;63.90;;;;;;5043209;28;19913;-68
2023/03/17 01:35:09;;;;;;;;;;;31.70;63.40;;;;;;5042524;28;19913;-67
2023/03/17 01:37:36;;;;;;;;;;;31.80;63.60;;;;;;5043057;28;19905;-67
2023/03/17 01:40:03;;;;;;;;;;;31.80;64.10;;;;;;5041800;28;20004;-67
2023/03/17 01:42:30;;;;;;;;;;;31.90;63.20;;;;;;5041999;28;19956;-70
2023/03/17 01:45:01;;;;;;;;;;;32.00;62.80;;;;;;5042343;28;19920;-70
2023/03/17 01:47:31;;;;;;;;;;;32.00;62.60;;;;;;5040906;28;20602;-66
2023/03/17 01:50:15;;;;;;;;;;;32.10;61.50;;;;;;5042326;28;19948;-69
2023/03/17 01:52:42;;;;;;;;;;;32.30;62.00;;;;;;5042799;28;20423;-66
2023/03/17 01:55:11;;;;;;;;;;;32.20;63.20;;;;;;5042295;28;19909;-68
2023/03/17 01:57:45;;;;;;;;;;;32.20;64.60;;;;;;5043257;28;19909;-66
2023/03/17 02:00:14;;;;;;;;;;;32.30;65.70;;;;;;5040609;28;20448;-67
2023/03/17 02:02:42;;;;;;;;;;;32.40;67.50;;;;;;5042917;28;19955;-70
2023/03/17 02:05:11;;;;;;;;;;;32.40;70.20;;;;;;5042126;28;20024;-69
2023/03/17 02:07:39;;;;;;;;;;;32.20;72.40;;;;;;5042988;28;20043;-70
2023/03/17 02:10:07;;;;;;;;;;;32.10;73.10;;;;;;5042231;28;19913;-70
2023/03/17 02:12:35;;;;;;;;;;;31.90;71.60;;;;;;5042388;28;19927;-69
2023/03/17 02:15:02;;;;;;;;;;;31.90;70.50;;;;;;5042135;28;20354;-68
2023/03/17 02:17:29;;;;;;;;;;;31.80;69.30;;;;;;5041611;28;20441;-69
2023/03/17 02:19:55;;;;;;;;;;;31.90;68.30;;;;;;5042391;28;19959;-68
2023/03/17 02:22:22;;;;;;;;;;;31.80;68.40;;;;;;5042358;28;19916;-68
2023/03/17 02:24:54;;;;;;;;;;;31.70;68.20;;;;;;5042581;28;20309;-68
2023/03/17 02:27:21;;;;;;;;;;;31.70;68.20;;;;;;5041156;28;19928;-68
2023/03/17 02:29:49;;;;;;;;;;;31.60;68.50;;;;;;5041292;28;19913;-68
2023/03/17 02:32:17;;;;;;;;;;;31.60;69.20;;;;;;5041712;28;19932;-69
2023/03/17 02:34:45;;;;;;;;;;;31.70;70.00;;;;;;5042256;28;19917;-70
2023/03/17 02:37:12;;;;;;;;;;;31.80;68.60;;;;;;5042076;28;20352;-69
2023/03/17 02:39:38;;;;;;;;;;;31.80;70.00;;;;;;5041077;28;19924;-70
2023/03/17 02:42:05;;;;;;;;;;;31.70;71.90;;;;;;5041167;28;19920;-68
2023/03/17 02:44:32;;;;;;;;;;;31.80;71.90;;;;;;5041318;28;19909;-70
2023/03/17 02:46:58;;;;;;;;;;;31.80;71.20;;;;;;5041689;28;19920;-68
2023/03/17 02:49:26;;;;;;;;;;;32.10;72.10;;;;;;5041451;28;19909;-68
2023/03/17 02:51:53;;;;;;;;;;;32.30;71.90;;;;;;5041427;28;19916;-68
2023/03/17 02:54:19;;;;;;;;;;;32.80;72.30;;;;;;5041202;28;19916;-69
2023/03/17 02:56:46;;;;;;;;;;;33.10;72.20;;;;;;5041372;28;19916;-67
2023/03/17 02:59:13;;;;;;;;;;;33.60;72.00;;;;;;5041067;28;19908;-69
2023/03/17 03:01:39;;;;;;;;;;;34.20;70.30;;;;;;5040085;28;20381;-67
2023/03/17 03:04:06;;;;;;;;;;;34.80;69.80;;;;;;5040717;28;20009;-69
2023/03/17 03:06:33;;;;;;;;;;;35.70;69.30;;;;;;5040896;28;20051;-68
2023/03/17 03:08:59;;;;;;;;;;;36.40;67.90;;;;;;5041762;28;19920;-69
2023/03/17 03:11:28;;;;;;;;;;;37.10;68.00;;;;;;5042087;28;20633;-68
2023/03/17 03:13:55;;;;;;;;;;;38.10;65.60;;;;;;5040101;28;19913;-71
2023/03/17 03:16:21;;;;;;;;;;;38.60;64.90;;;;;;5040917;28;19919;-70
2023/03/17 03:18:48;;;;;;;;;;;38.30;65.10;;;;;;5040080;28;19913;-68
2023/03/17 03:21:14;;;;;;;;;;;38.20;65.10;;;;;;5040285;28;20285;-68
2023/03/17 03:23:42;;;;;;;;;;;38.10;65.30;;;;;;5038848;28;19919;-69
2023/03/17 03:26:08;;;;;;;;;;;38.70;62.30;;;;;;5040299;28;19963;-69
2023/03/17 03:28:35;;;;;;;;;;;39.50;62.70;;;;;;5040533;28;19970;-69
2023/03/17 03:31:02;;;;;;;;;;;40.20;63.20;;;;;;5041055;28;20366;-67
2023/03/17 03:33:28;;;;;;;;;;;40.60;62.20;;;;;;5040929;28;19913;-69
2023/03/17 03:35:55;;;;;;;;;;;41.00;61.00;;;;;;5039836;28;19909;-70
2023/03/17 03:38:22;;;;;;;;;;;40.80;61.20;;;;;;5040676;28;19916;-68
2023/03/17 03:40:49;;;;;;;;;;;41.30;61.10;;;;;;5039966;28;19921;-70
2023/03/17 03:43:15;;;;;;;;;;;41.10;61.20;;;;;;5040363;28;19913;-69
2023/03/17 03:45:42;;;;;;;;;;;40.90;61.10;;;;;;5039313;28;19920;-70
2023/03/17 03:48:09;;;;;;;;;;;40.60;61.80;;;;;;5040498;28;19917;-69
2023/03/17 03:50:36;;;;;;;;;;;39.90;61.90;;;;;;5040988;28;19913;-70
2023/03/17 03:53:02;;;;;;;;;;;40.10;61.70;;;;;;5040100;28;20023;-68
2023/03/17 03:55:29;;;;;;;;;;;40.40;61.40;;;;;;5040337;28;19913;-68
2023/03/17 03:57:56;;;;;;;;;;;41.10;59.60;;;;;;5039851;28;19970;-69
2023/03/17 04:00:23;;;;;;;;;;;41.60;59.70;;;;;;5040398;28;19909;-67
2023/03/17 04:02:49;;;;;;;;;;;42.10;59.30;;;;;;5039379;28;20011;-70
2023/03/17 04:05:17;;;;;;;;;;;42.30;58.50;;;;;;5039048;28;19920;-68
2023/03/17 04:07:44;;;;;;;;;;;42.30;59.40;;;;;;5039530;28;19936;-69
2023/03/17 04:10:11;;;;;;;;;;;42.40;59.10;;;;;;5046509;28;19912;-70
2023/03/17 04:12:38;;;;;;;;;;;43.10;58.40;;;;;;5039155;28;20668;-68
2023/03/17 04:15:07;;;;;;;;;;;43.00;57.60;;;;;;5038062;28;19917;-68
2023/03/17 04:17:35;;;;;;;;;;;43.40;58.40;;;;;;5038260;28;19909;-69
2023/03/17 04:20:02;;;;;;;;;;;43.70;57.60;;;;;;5037291;28;19976;-68
2023/03/17 04:22:28;;;;;;;;;;;43.20;57.70;;;;;;5038399;28;19962;-68
2023/03/17 04:24:55;;;;;;;;;;;42.00;58.60;;;;;;5037652;28;19909;-69
2023/03/17 04:27:22;;;;;;;;;;;40.30;60.20;;;;;;5038049;28;20280;-69
2023/03/17 04:29:49;;;;;;;;;;;39.10;62.10;;;;;;5037694;28;19912;-70
2023/03/17 04:32:16;;;;;;;;;;;39.50;63.20;;;;;;5039817;28;19909;-71
2023/03/17 04:34:42;;;;;;;;;;;40.10;61.20;;;;;;5041078;28;20376;-70
2023/03/17 04:37:10;;;;;;;;;;;39.10;62.30;;;;;;5039647;28;19916;-68
2023/03/17 04:39:36;;;;;;;;;;;37.50;64.50;;;;;;5039764;28;20457;-68
2023/03/17 04:42:04;;;;;;;;;;;37.20;66.20;;;;;;5040080;28;19919;-69
2023/03/17 04:44:30;;;;;;;;;;;37.70;66.80;;;;;;5044553;28;19915;-70
2023/03/17 04:46:57;;;;;;;;;;;38.80;64.70;;;;;;5040548;28;19915;-69
2023/03/17 04:49:24;;;;;;;;;;;39.70;62.00;;;;;;5043124;28;19909;-70
2023/03/17 04:51:51;;;;;;;;;;;39.00;62.70;;;;;;5043346;28;20011;-69
2023/03/17 04:54:18;;;;;;;;;;;37.00;66.50;;;;;;5044069;28;19913;-70
2023/03/17 04:56:44;;;;;;;;;;;35.90;67.90;;;;;;5042993;28;19924;-68
2023/03/17 04:59:11;;;;;;;;;;;35.30;69.60;;;;;;5042753;28;20369;-69
2023/03/17 05:01:38;;;;;;;;;;;36.00;68.60;;;;;;5043546;28;19913;-69
2023/03/17 05:04:05;;;;;;;;;;;37.30;66.70;;;;;;5042238;28;19936;-68
2023/03/17 05:06:32;;;;;;;;;;;38.20;64.40;;;;;;5043395;28;19915;-68
2023/03/17 05:08:58;;;;;;;;;;;37.70;64.30;;;;;;5042373;28;19917;-67
2023/03/17 05:11:25;;;;;;;;;;;36.40;66.60;;;;;;5043005;28;19916;-69
2023/03/17 05:13:52;;;;;;;;;;;34.50;69.70;;;;;;5044416;28;19908;-70
2023/03/17 05:16:18;;;;;;;;;;;33.30;72.80;;;;;;5042993;28;19935;-70
2023/03/17 05:18:45;;;;;;;;;;;33.20;74.70;;;;;;5043682;28;19909;-70
2023/03/17 05:21:12;;;;;;;;;;;34.30;71.00;;;;;;5042594;28;20246;-69
2023/03/17 05:23:39;;;;;;;;;;;34.50;70.30;;;;;;5043542;28;20400;-70
2023/03/17 05:26:06;;;;;;;;;;;33.60;71.60;;;;;;5041621;28;20361;-69
2023/03/17 05:28:33;;;;;;;;;;;32.80;73.40;;;;;;5042386;28;20378;-68
2023/03/17 05:30:59;;;;;;;;;;;31.90;75.60;;;;;;5042136;28;19913;-69
2023/03/17 05:33:26;;;;;;;;;;;31.30;77.60;;;;;;5043477;28;19944;-69
2023/03/17 05:35:53;;;;;;;;;;;30.80;78.80;;;;;;5043567;28;19913;-70
2023/03/17 05:38:19;;;;;;;;;;;30.90;78.80;;;;;;5043385;28;19912;-67
2023/03/17 05:40:48;;;;;;;;;;;31.00;78.60;;;;;;5042743;28;20676;-68
2023/03/17 05:43:15;;;;;;;;;;;30.70;78.30;;;;;;5042299;28;20011;-67
2023/03/17 05:45:41;;;;;;;;;;;30.50;79.10;;;;;;5041481;28;19912;-70
2023/03/17 05:48:08;;;;;;;;;;;30.20;79.70;;;;;;5041062;28;19924;-67
2023/03/17 05:50:35;;;;;;;;;;;29.90;81.50;;;;;;5042203;28;19908;-66
2023/03/17 05:53:02;;;;;;;;;;;29.50;81.70;;;;;;5041898;28;19913;-70
2023/03/17 05:55:28;;;;;;;;;;;29.50;83.00;;;;;;5041735;28;20289;-68
2023/03/17 05:57:55;;;;;;;;;;;30.50;80.70;;;;;;5043158;28;19919;-68
2023/03/17 06:00:22;;;;;;;;;;;32.50;78.00;;;;;;5041090;28;19939;-68
2023/03/17 06:02:49;;;;;;;;;;;33.10;74.20;;;;;;5042232;28;19915;-68
2023/03/17 06:05:16;;;;;;;;;;;33.00;74.50;;;;;;5039944;28;20274;-70
2023/03/17 06:07:42;;;;;;;;;;;33.00;74.70;;;;;;5041937;28;19917;-69
2023/03/17 06:10:10;;;;;;;;;;;33.70;74.50;;;;;;5041684;28;20366;-68
2023/03/17 06:12:37;;;;;;;;;;;34.90;72.50;;;;;;5038883;28;20366;-69
2023/03/17 06:15:04;;;;;;;;;;;35.40;69.60;;;;;;5041138;28;19917;-68
2023/03/17 06:17:31;;;;;;;;;;;35.20;69.60;;;;;;5043180;28;19913;-70
2023/03/17 06:19:57;;;;;;;;;;;35.80;69.50;;;;;;5043067;28;19963;-70
2023/03/17 06:22:24;;;;;;;;;;;37.30;67.40;;;;;;5041101;28;19916;-70
2023/03/17 06:24:52;;;;;;;;;;;38.40;65.70;;;;;;5041907;28;19920;-68
2023/03/17 06:27:19;;;;;;;;;;;38.30;64.70;;;;;;5041848;28;19971;-69
2023/03/17 06:29:46;;;;;;;;;;;36.70;66.30;;;;;;5042582;28;19915;-68
2023/03/17 06:32:13;;;;;;;;;;;34.70;69.40;;;;;;5042009;28;19920;-69
2023/03/17 06:34:41;;;;;;;;;;;33.50;72.60;;;;;;5041398;28;20524;-69
2023/03/17 06:37:09;;;;;;;;;;;33.60;72.90;;;;;;5042261;28;19931;-69
2023/03/17 06:39:36;;;;;;;;;;;33.40;72.70;;;;;;5042596;28;19920;-68
2023/03/17 06:42:03;;;;;;;;;;;32.60;73.80;;;;;;5042257;28;20345;-70
2023/03/17 06:44:30;;;;;;;;;;;31.80;76.40;;;;;;5039808;28;19913;-69
2023/03/17 06:46:57;;;;;;;;;;;31.20;78.20;;;;;;5040141;28;20686;-69
2023/03/17 06:49:24;;;;;;;;;;;31.10;79.50;;;;;;5040104;28;19912;-71
2023/03/17 06:51:51;;;;;;;;;;;31.50;77.70;;;;;;5041803;28;20341;-69
2023/03/17 06:54:19;;;;;;;;;;;31.50;77.80;;;;;;5038190;28;19913;-71
2023/03/17 06:56:46;;;;;;;;;;;31.60;79.00;;;;;;5039838;28;19908;-68
2023/03/17 06:59:13;;;;;;;;;;;31.60;77.00;;;;;;5041741;28;19909;-69
2023/03/17 07:01:39;;;;;;;;;;;31.00;78.40;;;;;;5042364;28;19909;-71
2023/03/17 07:04:06;;;;;;;;;;;30.30;80.70;;;;;;5042640;28;19916;-69
2023/03/17 07:06:33;;;;;;;;;;;29.70;82.10;;;;;;5039909;28;20373;-67
2023/03/17 07:08:59;;;;;;;;;;;29.20;83.60;;;;;;5041817;28;20234;-68
2023/03/17 07:11:28;;;;;;;;;;;29.00;85.40;;;;;;5040962;28;20250;-69
2023/03/17 07:13:55;;;;;;;;;;;28.80;85.30;;;;;;5040983;28;19913;-68
2023/03/17 07:16:22;;;;;;;;;;;28.50;86.70;;;;;;5040883;28;20011;-69
2023/03/17 07:18:49;;;;;;;;;;;28.20;87.70;;;;;;5056763;28;20004;-68
2023/03/17 07:21:16;;;;;;;;;;;27.80;88.80;;;;;;5041282;28;20332;-68
2023/03/17 07:23:43;;;;;;;;;;;27.70;90.10;;;;;;5056358;28;19916;-68
2023/03/17 07:26:09;;;;;;;;;;;27.60;90.20;;;;;;5042081;28;20393;-68
2023/03/17 07:28:36;;;;;;;;;;;27.10;90.60;;;;;;5041063;28;20385;-70
2023/03/17 07:31:06;;;;;;;;;;;27.00;91.30;;;;;;5041526;28;19909;-67
2023/03/17 07:33:33;;;;;;;;;;;26.80;91.60;;;;;;5040318;28;19966;-70
2023/03/17 07:36:00;;;;;;;;;;;26.80;92.20;;;;;;5041556;28;19919;-68
2023/03/17 07:38:27;;;;;;;;;;;26.80;92.70;;;;;;5040623;28;20384;-68
2023/03/17 07:40:53;;;;;;;;;;;26.80;92.60;;;;;;5041058;28;19921;-67
2023/03/17 07:43:20;;;;;;;;;;;26.70;92.80;;;;;;5040268;28;19909;-70
2023/03/17 07:45:47;;;;;;;;;;;26.70;92.90;;;;;;5041042;28;20384;-70
2023/03/17 07:48:13;;;;;;;;;;;26.60;93.40;;;;;;5041720;28;20404;-70
2023/03/17 07:50:41;;;;;;;;;;;26.60;93.40;;;;;;5040641;28;19962;-68
2023/03/17 07:53:08;;;;;;;;;;;26.70;93.70;;;;;;5040444;28;19913;-69
2023/03/17 07:55:36;;;;;;;;;;;26.70;93.80;;;;;;5039548;28;20463;-70
2023/03/17 07:58:03;;;;;;;;;;;26.60;93.80;;;;;;5041260;28;19916;-71
2023/03/17 08:00:30;;;;;;;;;;;26.50;94.10;;;;;;5040604;28;20361;-70
2023/03/17 08:02:57;;;;;;;;;;;26.50;94.30;;;;;;5040839;28;19909;-68
2023/03/17 08:05:24;;;;;;;;;;;26.40;94.60;;;;;;5039723;28;19920;-73
2023/03/17 08:07:51;;;;;;;;;;;26.20;95.10;;;;;;5040346;28;19928;-70
2023/03/17 08:10:18;;;;;;;;;;;26.10;95.80;;;;;;5040776;28;20369;-68
2023/03/17 08:12:44;;;;;;;;;;;26.00;96.30;;;;;;5040460;28;20474;-68
2023/03/17 08:15:11;;;;;;;;;;;25.90;96.80;;;;;;5040587;28;20568;-68
2023/03/17 08:17:39;;;;;;;;;;;25.90;96.70;;;;;;5039184;28;19909;-69
2023/03/17 08:20:06;;;;;;;;;;;25.80;97.10;;;;;;5040757;28;19909;-68
2023/03/17 08:22:32;;;;;;;;;;;25.80;97.70;;;;;;5040589;28;19913;-67
2023/03/17 08:25:00;;;;;;;;;;;25.60;98.00;;;;;;5040298;28;19908;-68
2023/03/17 08:27:26;;;;;;;;;;;25.70;98.70;;;;;;5040233;28;19971;-69
2023/03/17 08:29:53;;;;;;;;;;;25.60;98.60;;;;;;5040518;28;20003;-70
2023/03/17 08:32:20;;;;;;;;;;;25.60;99.20;;;;;;5041468;28;19913;-70
2023/03/17 08:34:47;;;;;;;;;;;25.60;99.40;;;;;;5039476;28;19913;-70
2023/03/17 08:37:13;;;;;;;;;;;25.50;99.90;;;;;;5038775;28;19905;-68
2023/03/17 08:39:40;;;;;;;;;;;25.40;99.90;;;;;;5054520;28;20007;-69
2023/03/17 08:42:10;;;;;;;;;;;25.40;99.90;;;;;;5039706;28;20301;-67
2023/03/17 08:44:37;;;;;;;;;;;25.40;99.90;;;;;;5038994;28;20008;-69
2023/03/17 08:47:04;;;;;;;;;;;25.40;99.90;;;;;;5038985;28;19916;-69
2023/03/17 08:49:33;;;;;;;;;;;25.50;99.90;;;;;;5039666;28;19917;-70
2023/03/17 08:52:01;;;;;;;;;;;25.40;99.90;;;;;;5039880;28;20328;-69
2023/03/17 08:54:28;;;;;;;;;;;25.50;99.90;;;;;;5041149;28;19909;-68
2023/03/17 08:56:54;;;;;;;;;;;25.50;99.90;;;;;;5039895;28;20012;-69
2023/03/17 08:59:21;;;;;;;;;;;25.50;99.90;;;;;;5040284;28;20369;-68
2023/03/17 09:01:49;;;;;;;;;;;25.50;99.90;;;;;;5039225;28;20004;-68
2023/03/17 09:04:15;;;;;;;;;;;25.40;99.90;;;;;;5040354;28;20366;-68
2023/03/17 09:06:42;;;;;;;;;;;25.40;99.90;;;;;;5039226;28;19913;-68
2023/03/17 09:09:09;;;;;;;;;;;25.40;99.90;;;;;;5039086;28;19921;-67
2023/03/17 09:11:36;;;;;;;;;;;25.30;99.90;;;;;;5040197;28;19909;-67
2023/03/17 09:14:03;;;;;;;;;;;25.30;99.90;;;;;;5037416;28;19909;-68
2023/03/17 09:16:32;;;;;;;;;;;25.30;99.90;;;;;;5039598;28;19936;-71
2023/03/17 09:18:59;;;;;;;;;;;25.20;99.90;;;;;;5040642;28;20273;-69
2023/03/17 09:21:26;;;;;;;;;;;25.20;99.90;;;;;;5039670;28;19913;-70
2023/03/17 09:23:53;;;;;;;;;;;25.10;99.90;;;;;;5037871;28;19962;-71
2023/03/17 09:26:20;;;;;;;;;;;25.10;99.90;;;;;;5038416;28;20276;-71
2023/03/17 09:28:46;;;;;;;;;;;25.00;99.90;;;;;;5039079;28;19928;-68
2023/03/17 09:31:13;;;;;;;;;;;25.00;99.90;;;;;;5043684;28;19918;-68
2023/03/17 09:33:40;;;;;;;;;;;25.00;99.90;;;;;;5043136;28;19913;-69
2023/03/17 09:36:07;;;;;;;;;;;25.00;99.90;;;;;;5043205;28;19919;-67
2023/03/17 09:38:34;;;;;;;;;;;25.00;99.90;;;;;;5044045;28;20308;-71
2023/03/17 09:41:05;;;;;;;;;;;25.00;99.90;;;;;;5042734;28;19967;-70
2023/03/17 09:44:03;;;;;;;;;;;24.90;99.90;;;;;;5042499;28;19913;-72
2023/03/17 09:46:49;;;;;;;;;;;24.90;99.90;;;;;;5038691;28;19912;-69
2023/03/17 09:49:15;;;;;;;;;;;24.90;99.90;;;;;;5043503;28;19917;-68
2023/03/17 09:51:43;;;;;;;;;;;24.80;99.90;;;;;;5041349;28;19913;-69
2023/03/17 09:54:14;;;;;;;;;;;24.80;99.90;;;;;;5041411;28;19913;-70
2023/03/17 09:56:42;;;;;;;;;;;24.70;99.90;;;;;;5043580;28;20410;-70
2023/03/17 09:59:18;;;;;;;;;;;24.80;99.90;;;;;;5043397;28;19954;-69
2023/03/17 10:01:44;;;;;;;;;;;24.70;99.90;;;;;;5042387;28;19908;-70
2023/03/17 10:04:11;;;;;;;;;;;24.70;99.90;;;;;;5043191;28;20374;-69
2023/03/17 10:06:46;;;;;;;;;;;24.60;99.90;;;;;;5043102;28;20407;-70
2023/03/17 10:09:28;;;;;;;;;;;24.70;99.90;;;;;;5042944;28;19917;-69
2023/03/17 10:12:01;;;;;;;;;;;24.70;99.90;;;;;;5057960;28;19913;-68
2023/03/17 10:14:39;;;;;;;;;;;24.70;99.90;;;;;;5042741;28;19920;-69
2023/03/17 10:17:23;;;;;;;;;;;24.70;99.90;;;;;;5042677;28;19915;-69
2023/03/17 10:19:53;;;;;;;;;;;24.70;99.90;;;;;;5041174;28;20589;-68
2023/03/17 10:22:24;;;;;;;;;;;24.70;99.90;;;;;;5042152;28;19978;-69
2023/03/17 10:24:52;;;;;;;;;;;24.70;99.90;;;;;;5042002;28;20380;-68
2023/03/17 10:27:19;;;;;;;;;;;24.70;99.90;;;;;;5041720;28;19917;-68
2023/03/17 10:29:46;;;;;;;;;;;24.70;99.90;;;;;;5042902;28;19917;-68
2023/03/17 10:32:13;;;;;;;;;;;24.70;99.90;;;;;;5043240;28;19998;-68
2023/03/17 10:34:40;;;;;;;;;;;24.70;99.90;;;;;;5042326;28;20416;-67
2023/03/17 10:37:16;;;;;;;;;;;24.70;99.90;;;;;;5039998;28;19959;-68
2023/03/17 10:39:45;;;;;;;;;;;24.70;99.90;;;;;;5042414;28;19920;-70
2023/03/17 10:42:19;;;;;;;;;;;24.70;99.90;;;;;;5042490;28;19916;-70
2023/03/17 10:44:45;;;;;;;;;;;24.60;99.90;;;;;;5042479;28;19912;-70
2023/03/17 10:47:20;;;;;;;;;;;24.60;99.90;;;;;;5038336;28;19956;-71
2023/03/17 10:49:47;;;;;;;;;;;24.50;99.90;;;;;;5042520;28;19908;-70
2023/03/17 10:52:19;;;;;;;;;;;24.50;99.90;;;;;;5043017;28;19909;-69
2023/03/17 10:54:53;;;;;;;;;;;24.50;99.90;;;;;;5042735;28;19909;-71
2023/03/17 10:57:20;;;;;;;;;;;24.40;99.90;;;;;;5042041;28;20369;-71
2023/03/17 10:59:54;;;;;;;;;;;24.40;99.90;;;;;;5042466;28;19909;-69
2023/03/17 11:02:26;;;;;;;;;;;24.30;99.90;;;;;;5041819;28;20373;-69
2023/03/17 11:04:53;;;;;;;;;;;24.40;99.90;;;;;;5040810;28;20358;-69
2023/03/17 11:07:26;;;;;;;;;;;24.40;99.90;;;;;;5041948;28;19916;-69
2023/03/17 11:09:56;;;;;;;;;;;24.30;99.90;;;;;;5041858;28;19962;-68
2023/03/17 11:12:29;;;;;;;;;;;24.30;99.90;;;;;;5041925;28;19955;-69
2023/03/17 11:15:00;;;;;;;;;;;24.30;99.90;;;;;;5040994;28;19908;-71
2023/03/17 11:17:38;;;;;;;;;;;24.30;99.90;;;;;;5040925;28;20391;-69
2023/03/17 11:20:05;;;;;;;;;;;24.30;99.90;;;;;;5041090;28;19909;-70
2023/03/17 11:22:34;;;;;;;;;;;24.20;99.90;;;;;;5041674;28;19948;-69
2023/03/17 11:25:08;;;;;;;;;;;24.20;99.90;;;;;;5041342;28;19909;-70
2023/03/17 11:27:37;;;;;;;;;;;24.20;99.90;;;;;;5041400;28;19927;-69
2023/03/17 11:30:13;;;;;;;;;;;24.30;99.90;;;;;;5041290;28;19917;-70
2023/03/17 11:32:43;;;;;;;;;;;24.20;99.90;;;;;;5041856;28;20422;-68
2023/03/17 11:35:16;;;;;;;;;;;24.20;99.90;;;;;;5040671;28;19913;-69
2023/03/17 11:37:45;;;;;;;;;;;24.20;99.90;;;;;;5021648;28;19980;-69
2023/03/17 11:40:28;;;;;;;;;;;24.20;99.90;;;;;;5020371;28;20271;-71
2023/03/17 11:42:55;;;;;;;;;;;24.20;99.90;;;;;;5024130;28;20366;-69
2023/03/17 11:45:26;;;;;;;;;;;24.30;99.90;;;;;;5040990;28;19913;-69
2023/03/17 11:47:55;;;;;;;;;;;24.20;99.90;;;;;;5042344;28;19925;-69
2023/03/17 11:50:28;;;;;;;;;;;24.20;99.90;;;;;;5041460;28;20000;-70
2023/03/17 11:53:00;;;;;;;;;;;24.30;99.90;;;;;;5041051;28;20376;-70
2023/03/17 11:55:34;;;;;;;;;;;24.20;99.90;;;;;;5040723;28;19909;-70
2023/03/17 11:58:01;;;;;;;;;;;24.20;99.90;;;;;;5040462;28;19928;-70
2023/03/17 12:00:44;;;;;;;;;;;24.30;99.90;;;;;;5041192;28;19908;-70
2023/03/17 12:03:14;;;;;;;;;;;24.30;99.90;;;;;;5055287;28;19940;-70
2023/03/17 12:05:41;;;;;;;;;;;24.20;99.90;;;;;;5040684;28;19920;-68
2023/03/17 12:08:08;;;;;;;;;;;24.20;99.90;;;;;;5056250;28;19920;-66
2023/03/17 12:10:50;;;;;;;;;;;24.20;99.90;;;;;;5055902;28;19919;-70
2023/03/17 12:13:23;;;;;;;;;;;24.10;99.90;;;;;;5039790;28;19928;-69
2023/03/17 12:15:51;;;;;;;;;;;24.20;99.90;;;;;;5040179;28;19987;-69
2023/03/17 12:18:31;;;;;;;;;;;24.10;99.90;;;;;;5039703;28;20592;-69
2023/03/17 12:21:13;;;;;;;;;;;24.20;99.90;;;;;;5041541;28;20308;-68
2023/03/17 12:23:46;;;;;;;;;;;24.20;99.90;;;;;;5040367;28;20357;-70
2023/03/17 12:26:23;;;;;;;;;;;24.20;99.90;;;;;;5039928;28;19963;-68
2023/03/17 12:28:56;;;;;;;;;;;24.20;99.90;;;;;;5040850;28;19921;-69
2023/03/17 12:31:25;;;;;;;;;;;24.20;99.90;;;;;;5039534;28;20380;-68
2023/03/17 12:34:10;;;;;;;;;;;24.20;99.90;;;;;;5040548;28;19913;-68
2023/03/17 12:36:40;;;;;;;;;;;24.20;99.90;;;;;;5040571;28;19912;-68
2023/03/17 12:39:09;;;;;;;;;;;24.20;99.90;;;;;;5040515;28;19909;-68
2023/03/17 12:41:35;;;;;;;;;;;24.10;99.90;;;;;;5040478;28;20258;-69
2023/03/17 12:44:20;;;;;;;;;;;24.10;99.90;;;;;;5040947;28;19912;-70
2023/03/17 12:46:47;;;;;;;;;;;24.10;99.90;;;;;;5040560;28;19913;-68
2023/03/17 12:49:13;;;;;;;;;;;24.10;99.90;;;;;;5040047;28;20012;-70
2023/03/17 12:51:40;;;;;;;;;;;24.10;99.90;;;;;;5039485;28;19923;-70
2023/03/17 12:54:20;;;;;;;;;;;24.10;99.90;;;;;;5037352;28;19966;-71
2023/03/17 12:56:48;;;;;;;;;;;24.10;99.90;;;;;;5040307;28;19913;-69
2023/03/17 12:59:17;;;;;;;;;;;24.10;99.90;;;;;;5041208;28;20000;-70
2023/03/17 13:01:45;;;;;;;;;;;24.10;99.90;;;;;;5038848;28;19909;-69
2023/03/17 13:04:11;;;;;;;;;;;24.00;99.90;;;;;;5041467;28;19912;-70
2023/03/17 13:06:40;;;;;;;;;;;24.00;99.90;;;;;;5043468;28;20254;-70
2023/03/17 13:09:26;;;;;;;;;;;24.00;99.90;;;;;;5044456;28;19921;-70
2023/03/17 13:11:52;;;;;;;;;;;24.00;99.90;;;;;;5043668;28;19936;-71
2023/03/17 13:14:25;;;;;;;;;;;24.00;99.90;;;;;;5044742;28;19913;-70
2023/03/17 13:17:03;;;;;;;;;;;24.00;99.90;;;;;;5044062;28;19913;-70
2023/03/17 13:19:34;;;;;;;;;;;24.00;99.90;;;;;;5043380;28;20350;-70
2023/03/17 13:22:00;;;;;;;;;;;23.90;99.90;;;;;;5044161;28;19913;-70
2023/03/17 13:24:47;;;;;;;;;;;23.90;99.90;;;;;;5043020;28;20419;-71
2023/03/17 13:27:31;;;;;;;;;;;23.90;99.90;;;;;;5043810;28;20316;-70
2023/03/17 13:30:21;;;;;;;;;;;23.90;99.90;;;;;;5024012;28;19955;-69
2023/03/17 13:33:11;;;;;;;;;;;23.90;99.90;;;;;;5019833;28;20019;-71
2023/03/17 13:35:40;;;;;;;;;;;23.90;99.90;;;;;;5039780;28;19908;-71
2023/03/17 13:38:22;;;;;;;;;;;23.90;99.90;;;;;;5043415;28;19913;-71
2023/03/17 13:41:04;;;;;;;;;;;23.90;99.90;;;;;;5034343;28;19924;-69
2023/03/17 13:43:49;;;;;;;;;;;23.90;99.90;;;;;;5043477;28;19913;-72
2023/03/17 13:46:18;;;;;;;;;;;23.80;99.90;;;;;;5044044;28;19971;-70
2023/03/17 13:48:45;;;;;;;;;;;23.80;99.90;;;;;;5042574;28;20021;-71
2023/03/17 13:51:11;;;;;;;;;;;23.80;99.90;;;;;;5044253;28;19908;-71
2023/03/17 13:53:44;;;;;;;;;;;23.80;99.90;;;;;;5043014;28;19936;-69
2023/03/17 13:56:45;;;;;;;;;;;23.70;99.90;;;;;;5043864;28;19956;-69
2023/03/17 13:59:12;;;;;;;;;;;23.70;99.90;;;;;;5043853;28;19999;-71
2023/03/17 14:01:53;;;;;;;;;;;23.70;99.90;;;;;;5043468;28;19908;-69
2023/03/17 14:04:22;;;;;;;;;;;23.70;99.90;;;;;;5044219;28;20315;-67
2023/03/17 14:06:50;;;;;;;;;;;23.70;99.90;;;;;;5042278;28;19909;-68
2023/03/17 14:09:22;;;;;;;;;;;23.70;99.90;;;;;;5043634;28;19921;-71
2023/03/17 14:11:50;;;;;;;;;;;23.70;99.90;;;;;;5040470;28;19941;-69
2023/03/17 14:14:31;;;;;;;;;;;23.70;99.90;;;;;;5043289;28;20000;-69
2023/03/17 14:17:24;;;;;;;;;;;23.60;99.90;;;;;;5039793;28;19909;-69
2023/03/17 14:20:03;;;;;;;;;;;23.60;99.90;;;;;;5041308;28;19913;-69
2023/03/17 14:22:30;;;;;;;;;;;23.60;99.90;;;;;;5043220;28;19960;-69
2023/03/17 14:24:59;;;;;;;;;;;23.60;99.90;;;;;;5040851;28;20004;-70
2023/03/17 14:27:26;;;;;;;;;;;23.50;99.90;;;;;;5043090;28;20285;-69